sensor_id;sensor_type;location;lat;lon;timestamp;P1;durP1;ratioP1;P2;durP2;ratioP2
54683;SDS011;40582;53.100;6.686;2023-02-18T00:02:02;20.20;;;3.88;;
54683;SDS011;40582;53.100;6.686;2023-02-18T00:04:28;21.77;;;3.47;;
54683;SDS011;40582;53.100;6.686;2023-02-18T00:06:54;30.85;;;5.25;;
54683;SDS011;40582;53.100;6.686;2023-02-18T00:09:20;15.88;;;4.53;;
54683;SDS011;40582;53.100;6.686;2023-02-18T00:11:46;22.95;;;3.92;;
54683;SDS011;40582;53.100;6.686;2023-02-18T00:14:12;32.38;;;4.47;;
54683;SDS011;40582;53.100;6.686;2023-02-18T00:16:39;24.27;;;4.07;;
54683;SDS011;40582;53.100;6.686;2023-02-18T00:19:06;28.17;;;5.03;;
54683;SDS011;40582;53.100;6.686;2023-02-18T00:21:35;25.33;;;4.18;;
54683;SDS011;40582;53.100;6.686;2023-02-18T00:24:02;20.08;;;3.78;;
54683;SDS011;40582;53.100;6.686;2023-02-18T00:26:28;26.83;;;4.28;;
54683;SDS011;40582;53.100;6.686;2023-02-18T00:28:54;22.48;;;4.38;;
54683;SDS011;40582;53.100;6.686;2023-02-18T00:31:23;24.10;;;4.32;;
54683;SDS011;40582;53.100;6.686;2023-02-18T00:33:55;23.52;;;4.00;;
54683;SDS011;40582;53.100;6.686;2023-02-18T00:36:22;27.63;;;4.70;;
54683;SDS011;40582;53.100;6.686;2023-02-18T00:38:53;23.45;;;4.97;;
54683;SDS011;40582;53.100;6.686;2023-02-18T00:41:20;21.02;;;4.40;;
54683;SDS011;40582;53.100;6.686;2023-02-18T00:43:47;26.88;;;4.57;;
54683;SDS011;40582;53.100;6.686;2023-02-18T00:46:13;30.17;;;4.57;;
54683;SDS011;40582;53.100;6.686;2023-02-18T00:48:39;16.38;;;4.13;;
54683;SDS011;40582;53.100;6.686;2023-02-18T00:51:06;26.52;;;4.35;;
54683;SDS011;40582;53.100;6.686;2023-02-18T00:53:32;21.13;;;4.20;;
54683;SDS011;40582;53.100;6.686;2023-02-18T00:55:58;27.55;;;4.78;;
54683;SDS011;40582;53.100;6.686;2023-02-18T00:58:23;15.63;;;3.88;;
54683;SDS011;40582;53.100;6.686;2023-02-18T01:00:49;20.67;;;4.63;;
54683;SDS011;40582;53.100;6.686;2023-02-18T01:03:15;18.63;;;3.88;;
54683;SDS011;40582;53.100;6.686;2023-02-18T01:05:41;23.73;;;4.53;;
54683;SDS011;40582;53.100;6.686;2023-02-18T01:08:08;30.00;;;5.50;;
54683;SDS011;40582;53.100;6.686;2023-02-18T01:10:35;26.13;;;4.68;;
54683;SDS011;40582;53.100;6.686;2023-02-18T01:13:04;23.02;;;4.25;;
54683;SDS011;40582;53.100;6.686;2023-02-18T01:15:29;22.98;;;4.28;;
54683;SDS011;40582;53.100;6.686;2023-02-18T01:17:55;23.27;;;4.90;;
54683;SDS011;40582;53.100;6.686;2023-02-18T01:20:21;20.88;;;4.38;;
54683;SDS011;40582;53.100;6.686;2023-02-18T01:22:47;21.30;;;4.43;;
54683;SDS011;40582;53.100;6.686;2023-02-18T01:25:13;20.70;;;4.05;;
54683;SDS011;40582;53.100;6.686;2023-02-18T01:27:39;28.92;;;4.47;;
54683;SDS011;40582;53.100;6.686;2023-02-18T01:30:06;22.90;;;4.45;;
54683;SDS011;40582;53.100;6.686;2023-02-18T01:32:33;31.50;;;4.60;;
54683;SDS011;40582;53.100;6.686;2023-02-18T01:35:05;23.75;;;4.80;;
54683;SDS011;40582;53.100;6.686;2023-02-18T01:37:32;26.90;;;4.72;;
54683;SDS011;40582;53.100;6.686;2023-02-18T01:39:58;29.65;;;4.32;;
54683;SDS011;40582;53.100;6.686;2023-02-18T01:42:25;24.55;;;4.20;;
54683;SDS011;40582;53.100;6.686;2023-02-18T01:44:52;25.58;;;4.07;;
54683;SDS011;40582;53.100;6.686;2023-02-18T01:47:18;26.05;;;4.10;;
54683;SDS011;40582;53.100;6.686;2023-02-18T01:49:45;28.08;;;5.95;;
54683;SDS011;40582;53.100;6.686;2023-02-18T01:52:16;25.17;;;4.63;;
54683;SDS011;40582;53.100;6.686;2023-02-18T01:54:46;37.20;;;5.65;;
54683;SDS011;40582;53.100;6.686;2023-02-18T01:57:37;28.20;;;4.88;;
54683;SDS011;40582;53.100;6.686;2023-02-18T02:00:09;21.40;;;4.25;;
54683;SDS011;40582;53.100;6.686;2023-02-18T02:02:38;31.27;;;4.55;;
54683;SDS011;40582;53.100;6.686;2023-02-18T02:05:08;24.38;;;5.32;;
54683;SDS011;40582;53.100;6.686;2023-02-18T02:07:35;25.65;;;4.70;;
54683;SDS011;40582;53.100;6.686;2023-02-18T02:10:01;27.70;;;4.40;;
54683;SDS011;40582;53.100;6.686;2023-02-18T02:37:46;35.38;;;6.55;;
54683;SDS011;40582;53.100;6.686;2023-02-18T02:46:25;26.02;;;5.60;;
54683;SDS011;40582;53.100;6.686;2023-02-18T02:51:32;28.83;;;6.75;;
54683;SDS011;40582;53.100;6.686;2023-02-18T02:54:15;19.83;;;5.43;;
54683;SDS011;40582;53.100;6.686;2023-02-18T02:56:44;25.80;;;5.90;;
54683;SDS011;40582;53.100;6.686;2023-02-18T02:59:12;23.13;;;5.68;;
54683;SDS011;40582;53.100;6.686;2023-02-18T03:10:48;28.98;;;7.57;;
54683;SDS011;40582;53.100;6.686;2023-02-18T03:13:35;35.67;;;8.32;;
54683;SDS011;40582;53.100;6.686;2023-02-18T03:19:05;30.80;;;7.22;;
54683;SDS011;40582;53.100;6.686;2023-02-18T03:21:47;27.55;;;6.68;;
54683;SDS011;40582;53.100;6.686;2023-02-18T03:24:36;32.38;;;7.40;;
54683;SDS011;40582;53.100;6.686;2023-02-18T03:27:12;33.08;;;7.70;;
54683;SDS011;40582;53.100;6.686;2023-02-18T03:29:45;29.30;;;8.13;;
54683;SDS011;40582;53.100;6.686;2023-02-18T03:32:16;31.65;;;7.90;;
54683;SDS011;40582;53.100;6.686;2023-02-18T03:34:44;30.13;;;7.30;;
54683;SDS011;40582;53.100;6.686;2023-02-18T03:37:14;24.27;;;7.13;;
54683;SDS011;40582;53.100;6.686;2023-02-18T03:39:41;25.65;;;7.70;;
54683;SDS011;40582;53.100;6.686;2023-02-18T03:42:11;24.92;;;7.57;;
54683;SDS011;40582;53.100;6.686;2023-02-18T03:44:36;27.88;;;6.82;;
54683;SDS011;40582;53.100;6.686;2023-02-18T03:47:02;33.60;;;7.93;;
54683;SDS011;40582;53.100;6.686;2023-02-18T03:49:28;22.35;;;7.85;;
54683;SDS011;40582;53.100;6.686;2023-02-18T03:51:53;30.13;;;7.95;;
54683;SDS011;40582;53.100;6.686;2023-02-18T03:54:19;32.90;;;8.05;;
54683;SDS011;40582;53.100;6.686;2023-02-18T03:56:45;25.50;;;6.85;;
54683;SDS011;40582;53.100;6.686;2023-02-18T03:59:11;29.88;;;7.53;;
54683;SDS011;40582;53.100;6.686;2023-02-18T04:01:37;24.92;;;7.45;;
54683;SDS011;40582;53.100;6.686;2023-02-18T04:04:03;21.17;;;6.78;;
54683;SDS011;40582;53.100;6.686;2023-02-18T04:06:29;23.67;;;6.70;;
54683;SDS011;40582;53.100;6.686;2023-02-18T04:08:55;20.65;;;6.72;;
54683;SDS011;40582;53.100;6.686;2023-02-18T04:11:21;27.42;;;7.10;;
54683;SDS011;40582;53.100;6.686;2023-02-18T04:13:47;31.42;;;7.43;;
54683;SDS011;40582;53.100;6.686;2023-02-18T04:16:13;19.65;;;6.22;;
54683;SDS011;40582;53.100;6.686;2023-02-18T04:18:39;28.48;;;7.82;;
54683;SDS011;40582;53.100;6.686;2023-02-18T04:21:04;32.88;;;8.32;;
54683;SDS011;40582;53.100;6.686;2023-02-18T04:23:30;31.67;;;8.48;;
54683;SDS011;40582;53.100;6.686;2023-02-18T04:25:56;32.30;;;9.02;;
54683;SDS011;40582;53.100;6.686;2023-02-18T04:28:22;33.00;;;9.20;;
54683;SDS011;40582;53.100;6.686;2023-02-18T04:30:48;31.65;;;9.20;;
54683;SDS011;40582;53.100;6.686;2023-02-18T04:33:13;27.08;;;9.70;;
54683;SDS011;40582;53.100;6.686;2023-02-18T04:35:39;40.40;;;11.85;;
54683;SDS011;40582;53.100;6.686;2023-02-18T04:38:06;32.10;;;11.82;;
54683;SDS011;40582;53.100;6.686;2023-02-18T04:40:33;33.45;;;11.75;;
54683;SDS011;40582;53.100;6.686;2023-02-18T04:42:59;45.20;;;13.40;;
54683;SDS011;40582;53.100;6.686;2023-02-18T04:45:25;35.33;;;13.65;;
54683;SDS011;40582;53.100;6.686;2023-02-18T04:47:52;33.97;;;15.07;;
54683;SDS011;40582;53.100;6.686;2023-02-18T04:50:18;35.22;;;15.35;;
54683;SDS011;40582;53.100;6.686;2023-02-18T04:52:44;43.92;;;16.95;;
54683;SDS011;40582;53.100;6.686;2023-02-18T04:55:10;47.45;;;18.88;;
54683;SDS011;40582;53.100;6.686;2023-02-18T04:57:35;52.28;;;18.40;;
54683;SDS011;40582;53.100;6.686;2023-02-18T05:00:02;49.42;;;21.27;;
54683;SDS011;40582;53.100;6.686;2023-02-18T05:02:30;43.60;;;21.17;;
54683;SDS011;40582;53.100;6.686;2023-02-18T05:04:56;49.00;;;21.23;;
54683;SDS011;40582;53.100;6.686;2023-02-18T05:07:22;53.92;;;23.02;;
54683;SDS011;40582;53.100;6.686;2023-02-18T05:09:48;55.08;;;23.95;;
54683;SDS011;40582;53.100;6.686;2023-02-18T05:12:14;61.40;;;25.30;;
54683;SDS011;40582;53.100;6.686;2023-02-18T05:14:40;53.80;;;25.33;;
54683;SDS011;40582;53.100;6.686;2023-02-18T05:17:05;60.83;;;26.77;;
54683;SDS011;40582;53.100;6.686;2023-02-18T05:19:31;62.30;;;28.35;;
54683;SDS011;40582;53.100;6.686;2023-02-18T05:21:57;55.03;;;27.23;;
54683;SDS011;40582;53.100;6.686;2023-02-18T05:24:23;83.95;;;31.50;;
54683;SDS011;40582;53.100;6.686;2023-02-18T05:26:48;64.18;;;29.00;;
54683;SDS011;40582;53.100;6.686;2023-02-18T05:29:14;58.92;;;28.58;;
54683;SDS011;40582;53.100;6.686;2023-02-18T05:31:39;67.25;;;32.30;;
54683;SDS011;40582;53.100;6.686;2023-02-18T05:34:06;67.78;;;33.30;;
54683;SDS011;40582;53.100;6.686;2023-02-18T05:36:32;66.30;;;32.85;;
54683;SDS011;40582;53.100;6.686;2023-02-18T05:38:58;70.80;;;33.85;;
54683;SDS011;40582;53.100;6.686;2023-02-18T05:41:23;63.80;;;33.83;;
54683;SDS011;40582;53.100;6.686;2023-02-18T05:43:49;63.95;;;33.83;;
54683;SDS011;40582;53.100;6.686;2023-02-18T05:46:33;67.68;;;34.80;;
54683;SDS011;40582;53.100;6.686;2023-02-18T05:48:59;68.43;;;33.58;;
54683;SDS011;40582;53.100;6.686;2023-02-18T05:51:25;71.75;;;33.55;;
54683;SDS011;40582;53.100;6.686;2023-02-18T05:53:50;67.22;;;34.67;;
54683;SDS011;40582;53.100;6.686;2023-02-18T05:56:16;65.30;;;35.40;;
54683;SDS011;40582;53.100;6.686;2023-02-18T05:58:42;73.13;;;35.00;;
54683;SDS011;40582;53.100;6.686;2023-02-18T06:01:07;66.82;;;34.33;;
54683;SDS011;40582;53.100;6.686;2023-02-18T06:03:33;72.80;;;34.80;;
54683;SDS011;40582;53.100;6.686;2023-02-18T06:05:59;69.80;;;32.42;;
54683;SDS011;40582;53.100;6.686;2023-02-18T06:08:25;77.20;;;33.00;;
54683;SDS011;40582;53.100;6.686;2023-02-18T06:10:50;64.07;;;31.02;;
54683;SDS011;40582;53.100;6.686;2023-02-18T06:13:16;63.22;;;30.85;;
54683;SDS011;40582;53.100;6.686;2023-02-18T06:15:42;61.97;;;31.50;;
54683;SDS011;40582;53.100;6.686;2023-02-18T06:18:07;70.22;;;29.05;;
54683;SDS011;40582;53.100;6.686;2023-02-18T06:20:33;62.10;;;28.90;;
54683;SDS011;40582;53.100;6.686;2023-02-18T06:22:59;70.90;;;30.25;;
54683;SDS011;40582;53.100;6.686;2023-02-18T06:25:24;61.35;;;28.48;;
54683;SDS011;40582;53.100;6.686;2023-02-18T06:27:50;68.68;;;29.00;;
54683;SDS011;40582;53.100;6.686;2023-02-18T06:30:16;70.32;;;28.45;;
54683;SDS011;40582;53.100;6.686;2023-02-18T06:32:41;73.50;;;28.58;;
54683;SDS011;40582;53.100;6.686;2023-02-18T06:35:07;74.45;;;27.77;;
54683;SDS011;40582;53.100;6.686;2023-02-18T06:37:33;65.13;;;25.83;;
54683;SDS011;40582;53.100;6.686;2023-02-18T06:39:59;69.25;;;24.83;;
54683;SDS011;40582;53.100;6.686;2023-02-18T06:42:24;56.50;;;23.25;;
54683;SDS011;40582;53.100;6.686;2023-02-18T06:44:50;71.45;;;24.40;;
54683;SDS011;40582;53.100;6.686;2023-02-18T06:47:15;50.58;;;20.77;;
54683;SDS011;40582;53.100;6.686;2023-02-18T06:49:41;44.67;;;18.95;;
54683;SDS011;40582;53.100;6.686;2023-02-18T06:52:07;46.03;;;19.17;;
54683;SDS011;40582;53.100;6.686;2023-02-18T06:54:32;47.70;;;18.98;;
54683;SDS011;40582;53.100;6.686;2023-02-18T06:56:58;45.15;;;19.17;;
54683;SDS011;40582;53.100;6.686;2023-02-18T06:59:24;50.85;;;19.48;;
54683;SDS011;40582;53.100;6.686;2023-02-18T07:01:50;50.45;;;20.15;;
54683;SDS011;40582;53.100;6.686;2023-02-18T07:04:16;48.67;;;19.92;;
54683;SDS011;40582;53.100;6.686;2023-02-18T07:06:41;41.88;;;19.77;;
54683;SDS011;40582;53.100;6.686;2023-02-18T07:09:07;38.58;;;19.25;;
54683;SDS011;40582;53.100;6.686;2023-02-18T07:11:33;43.72;;;20.25;;
54683;SDS011;40582;53.100;6.686;2023-02-18T07:13:58;63.63;;;23.75;;
54683;SDS011;40582;53.100;6.686;2023-02-18T07:16:24;59.97;;;23.35;;
54683;SDS011;40582;53.100;6.686;2023-02-18T07:18:51;47.22;;;24.00;;
54683;SDS011;40582;53.100;6.686;2023-02-18T07:21:16;52.50;;;24.95;;
54683;SDS011;40582;53.100;6.686;2023-02-18T07:23:42;66.60;;;28.20;;
54683;SDS011;40582;53.100;6.686;2023-02-18T07:26:09;59.60;;;26.75;;
54683;SDS011;40582;53.100;6.686;2023-02-18T07:28:36;46.58;;;25.25;;
54683;SDS011;40582;53.100;6.686;2023-02-18T07:31:02;54.38;;;25.63;;
54683;SDS011;40582;53.100;6.686;2023-02-18T07:33:28;58.78;;;25.55;;
54683;SDS011;40582;53.100;6.686;2023-02-18T07:35:58;70.53;;;27.98;;
54683;SDS011;40582;53.100;6.686;2023-02-18T07:38:25;57.97;;;24.75;;
54683;SDS011;40582;53.100;6.686;2023-02-18T07:40:52;63.70;;;26.08;;
54683;SDS011;40582;53.100;6.686;2023-02-18T07:43:19;58.55;;;24.42;;
54683;SDS011;40582;53.100;6.686;2023-02-18T07:45:45;55.20;;;22.83;;
54683;SDS011;40582;53.100;6.686;2023-02-18T07:48:11;52.10;;;22.15;;
54683;SDS011;40582;53.100;6.686;2023-02-18T07:50:40;47.22;;;21.90;;
54683;SDS011;40582;53.100;6.686;2023-02-18T07:53:06;53.15;;;22.17;;
54683;SDS011;40582;53.100;6.686;2023-02-18T07:55:33;42.75;;;20.63;;
54683;SDS011;40582;53.100;6.686;2023-02-18T08:00:47;44.65;;;18.83;;
54683;SDS011;40582;53.100;6.686;2023-02-18T08:03:14;48.83;;;19.00;;
54683;SDS011;40582;53.100;6.686;2023-02-18T08:05:41;46.88;;;19.17;;
54683;SDS011;40582;53.100;6.686;2023-02-18T08:08:08;35.47;;;16.83;;
54683;SDS011;40582;53.100;6.686;2023-02-18T08:10:39;40.30;;;17.25;;
54683;SDS011;40582;53.100;6.686;2023-02-18T08:13:05;36.08;;;17.00;;
54683;SDS011;40582;53.100;6.686;2023-02-18T08:15:31;34.90;;;15.55;;
54683;SDS011;40582;53.100;6.686;2023-02-18T08:17:57;40.60;;;16.05;;
54683;SDS011;40582;53.100;6.686;2023-02-18T08:20:23;33.60;;;15.15;;
54683;SDS011;40582;53.100;6.686;2023-02-18T08:22:48;48.25;;;15.50;;
54683;SDS011;40582;53.100;6.686;2023-02-18T08:25:14;30.52;;;13.52;;
54683;SDS011;40582;53.100;6.686;2023-02-18T08:27:40;33.60;;;12.95;;
54683;SDS011;40582;53.100;6.686;2023-02-18T08:30:05;32.88;;;13.48;;
54683;SDS011;40582;53.100;6.686;2023-02-18T08:32:32;36.25;;;11.98;;
54683;SDS011;40582;53.100;6.686;2023-02-18T08:34:57;36.28;;;11.57;;
54683;SDS011;40582;53.100;6.686;2023-02-18T08:37:23;26.58;;;9.77;;
54683;SDS011;40582;53.100;6.686;2023-02-18T08:39:49;35.80;;;9.55;;
54683;SDS011;40582;53.100;6.686;2023-02-18T08:42:15;30.80;;;9.90;;
54683;SDS011;40582;53.100;6.686;2023-02-18T08:44:41;38.90;;;10.05;;
54683;SDS011;40582;53.100;6.686;2023-02-18T08:47:06;27.48;;;9.63;;
54683;SDS011;40582;53.100;6.686;2023-02-18T08:49:32;27.80;;;9.48;;
54683;SDS011;40582;53.100;6.686;2023-02-18T08:51:58;37.20;;;9.93;;
54683;SDS011;40582;53.100;6.686;2023-02-18T08:54:24;30.75;;;8.55;;
54683;SDS011;40582;53.100;6.686;2023-02-18T08:56:52;26.20;;;9.55;;
54683;SDS011;40582;53.100;6.686;2023-02-18T08:59:19;25.35;;;8.05;;
54683;SDS011;40582;53.100;6.686;2023-02-18T09:01:45;31.88;;;8.55;;
54683;SDS011;40582;53.100;6.686;2023-02-18T09:04:11;18.25;;;8.15;;
54683;SDS011;40582;53.100;6.686;2023-02-18T09:06:37;29.10;;;9.40;;
54683;SDS011;40582;53.100;6.686;2023-02-18T09:09:03;24.40;;;8.48;;
54683;SDS011;40582;53.100;6.686;2023-02-18T09:11:28;18.45;;;7.25;;
54683;SDS011;40582;53.100;6.686;2023-02-18T09:13:54;20.20;;;7.97;;
54683;SDS011;40582;53.100;6.686;2023-02-18T09:16:20;26.08;;;8.02;;
54683;SDS011;40582;53.100;6.686;2023-02-18T09:18:46;14.40;;;6.20;;
54683;SDS011;40582;53.100;6.686;2023-02-18T09:21:13;15.65;;;6.65;;
54683;SDS011;40582;53.100;6.686;2023-02-18T09:23:48;23.73;;;7.00;;
54683;SDS011;40582;53.100;6.686;2023-02-18T09:26:15;13.68;;;6.25;;
54683;SDS011;40582;53.100;6.686;2023-02-18T09:28:42;16.70;;;5.97;;
54683;SDS011;40582;53.100;6.686;2023-02-18T09:31:10;13.35;;;5.32;;
54683;SDS011;40582;53.100;6.686;2023-02-18T09:33:38;15.77;;;5.78;;
54683;SDS011;40582;53.100;6.686;2023-02-18T09:36:06;12.48;;;5.22;;
54683;SDS011;40582;53.100;6.686;2023-02-18T09:38:32;9.60;;;4.30;;
54683;SDS011;40582;53.100;6.686;2023-02-18T09:40:58;17.75;;;4.60;;
54683;SDS011;40582;53.100;6.686;2023-02-18T09:48:32;17.95;;;5.07;;
54683;SDS011;40582;53.100;6.686;2023-02-18T09:51:00;16.17;;;4.88;;
54683;SDS011;40582;53.100;6.686;2023-02-18T09:53:26;17.73;;;4.80;;
54683;SDS011;40582;53.100;6.686;2023-02-18T09:55:53;22.40;;;4.82;;
54683;SDS011;40582;53.100;6.686;2023-02-18T09:58:24;17.45;;;4.72;;
54683;SDS011;40582;53.100;6.686;2023-02-18T10:01:04;15.18;;;4.13;;
54683;SDS011;40582;53.100;6.686;2023-02-18T10:03:30;21.90;;;4.65;;
54683;SDS011;40582;53.100;6.686;2023-02-18T10:08:47;18.10;;;3.78;;
54683;SDS011;40582;53.100;6.686;2023-02-18T10:11:16;17.17;;;3.80;;
54683;SDS011;40582;53.100;6.686;2023-02-18T10:14:20;16.65;;;4.03;;
54683;SDS011;40582;53.100;6.686;2023-02-18T10:16:47;20.23;;;4.05;;
54683;SDS011;40582;53.100;6.686;2023-02-18T10:21:53;27.40;;;4.78;;
54683;SDS011;40582;53.100;6.686;2023-02-18T10:24:26;24.25;;;4.03;;
54683;SDS011;40582;53.100;6.686;2023-02-18T10:26:55;25.90;;;4.40;;
54683;SDS011;40582;53.100;6.686;2023-02-18T10:29:21;21.77;;;3.83;;
54683;SDS011;40582;53.100;6.686;2023-02-18T10:34:47;18.25;;;3.47;;
54683;SDS011;40582;53.100;6.686;2023-02-18T10:42:43;20.98;;;3.92;;
54683;SDS011;40582;53.100;6.686;2023-02-18T10:45:22;25.05;;;4.65;;
54683;SDS011;40582;53.100;6.686;2023-02-18T10:50:39;30.20;;;4.47;;
54683;SDS011;40582;53.100;6.686;2023-02-18T10:53:14;27.10;;;4.50;;
54683;SDS011;40582;53.100;6.686;2023-02-18T10:55:44;21.35;;;3.72;;
54683;SDS011;40582;53.100;6.686;2023-02-18T10:58:32;18.92;;;3.85;;
54683;SDS011;40582;53.100;6.686;2023-02-18T11:03:43;27.70;;;4.25;;
54683;SDS011;40582;53.100;6.686;2023-02-18T11:06:39;26.60;;;4.75;;
54683;SDS011;40582;53.100;6.686;2023-02-18T11:12:04;22.08;;;4.78;;
54683;SDS011;40582;53.100;6.686;2023-02-18T11:15:04;25.70;;;3.92;;
54683;SDS011;40582;53.100;6.686;2023-02-18T11:17:30;26.13;;;5.10;;
54683;SDS011;40582;53.100;6.686;2023-02-18T11:19:58;22.17;;;4.03;;
54683;SDS011;40582;53.100;6.686;2023-02-18T11:22:33;26.88;;;4.10;;
54683;SDS011;40582;53.100;6.686;2023-02-18T11:25:17;15.73;;;4.18;;
54683;SDS011;40582;53.100;6.686;2023-02-18T11:27:56;18.08;;;3.50;;
54683;SDS011;40582;53.100;6.686;2023-02-18T11:30:34;15.20;;;3.65;;
54683;SDS011;40582;53.100;6.686;2023-02-18T11:33:15;20.30;;;4.00;;
54683;SDS011;40582;53.100;6.686;2023-02-18T11:35:54;18.98;;;3.90;;
54683;SDS011;40582;53.100;6.686;2023-02-18T11:38:23;24.08;;;4.13;;
54683;SDS011;40582;53.100;6.686;2023-02-18T11:40:56;20.40;;;4.28;;
54683;SDS011;40582;53.100;6.686;2023-02-18T11:43:45;22.35;;;4.22;;
54683;SDS011;40582;53.100;6.686;2023-02-18T11:46:20;25.10;;;4.40;;
54683;SDS011;40582;53.100;6.686;2023-02-18T11:48:48;27.50;;;4.65;;
54683;SDS011;40582;53.100;6.686;2023-02-18T11:51:16;27.38;;;3.78;;
54683;SDS011;40582;53.100;6.686;2023-02-18T11:53:57;21.17;;;3.92;;
54683;SDS011;40582;53.100;6.686;2023-02-18T11:56:25;25.02;;;4.22;;
54683;SDS011;40582;53.100;6.686;2023-02-18T11:58:53;19.27;;;3.88;;
54683;SDS011;40582;53.100;6.686;2023-02-18T12:01:36;35.55;;;4.82;;
54683;SDS011;40582;53.100;6.686;2023-02-18T12:04:12;24.52;;;4.32;;
54683;SDS011;40582;53.100;6.686;2023-02-18T12:09:42;23.98;;;4.97;;
54683;SDS011;40582;53.100;6.686;2023-02-18T12:14:47;22.52;;;4.32;;
54683;SDS011;40582;53.100;6.686;2023-02-18T12:17:17;28.48;;;4.93;;
54683;SDS011;40582;53.100;6.686;2023-02-18T12:28:36;21.25;;;4.32;;
54683;SDS011;40582;53.100;6.686;2023-02-18T12:31:27;23.13;;;4.18;;
54683;SDS011;40582;53.100;6.686;2023-02-18T12:34:28;21.77;;;4.20;;
54683;SDS011;40582;53.100;6.686;2023-02-18T12:45:17;21.45;;;4.45;;
54683;SDS011;40582;53.100;6.686;2023-02-18T12:50:48;21.88;;;3.63;;
54683;SDS011;40582;53.100;6.686;2023-02-18T12:53:51;20.75;;;3.63;;
54683;SDS011;40582;53.100;6.686;2023-02-18T13:02:19;22.73;;;4.15;;
54683;SDS011;40582;53.100;6.686;2023-02-18T13:05:17;24.45;;;4.15;;
54683;SDS011;40582;53.100;6.686;2023-02-18T13:13:03;18.52;;;3.67;;
54683;SDS011;40582;53.100;6.686;2023-02-18T13:15:35;22.15;;;3.85;;
54683;SDS011;40582;53.100;6.686;2023-02-18T13:18:03;12.80;;;3.30;;
54683;SDS011;40582;53.100;6.686;2023-02-18T13:20:41;17.73;;;3.03;;
54683;SDS011;40582;53.100;6.686;2023-02-18T13:23:16;22.13;;;3.50;;
54683;SDS011;40582;53.100;6.686;2023-02-18T13:25:45;21.70;;;4.10;;
54683;SDS011;40582;53.100;6.686;2023-02-18T13:28:18;20.00;;;3.67;;
54683;SDS011;40582;53.100;6.686;2023-02-18T13:30:59;17.45;;;3.50;;
54683;SDS011;40582;53.100;6.686;2023-02-18T13:33:37;16.95;;;4.13;;
54683;SDS011;40582;53.100;6.686;2023-02-18T13:39:07;15.75;;;3.10;;
54683;SDS011;40582;53.100;6.686;2023-02-18T13:41:39;16.73;;;3.38;;
54683;SDS011;40582;53.100;6.686;2023-02-18T13:46:51;19.73;;;2.67;;
54683;SDS011;40582;53.100;6.686;2023-02-18T13:49:37;23.80;;;3.50;;
54683;SDS011;40582;53.100;6.686;2023-02-18T13:52:05;18.98;;;3.20;;
54683;SDS011;40582;53.100;6.686;2023-02-18T13:54:39;18.77;;;3.55;;
54683;SDS011;40582;53.100;6.686;2023-02-18T13:57:12;17.63;;;3.45;;
54683;SDS011;40582;53.100;6.686;2023-02-18T13:59:47;22.98;;;3.72;;
54683;SDS011;40582;53.100;6.686;2023-02-18T14:04:53;21.10;;;3.60;;
54683;SDS011;40582;53.100;6.686;2023-02-18T14:10:05;26.45;;;3.97;;
54683;SDS011;40582;53.100;6.686;2023-02-18T14:31:03;17.25;;;4.15;;
54683;SDS011;40582;53.100;6.686;2023-02-18T14:33:36;18.30;;;4.25;;
54683;SDS011;40582;53.100;6.686;2023-02-18T14:38:53;17.35;;;3.92;;
54683;SDS011;40582;53.100;6.686;2023-02-18T14:44:16;21.85;;;4.18;;
54683;SDS011;40582;53.100;6.686;2023-02-18T14:47:05;24.98;;;3.92;;
54683;SDS011;40582;53.100;6.686;2023-02-18T14:49:43;33.28;;;4.22;;
54683;SDS011;40582;53.100;6.686;2023-02-18T14:52:21;24.30;;;3.88;;
54683;SDS011;40582;53.100;6.686;2023-02-18T14:55:02;25.85;;;4.63;;
54683;SDS011;40582;53.100;6.686;2023-02-18T14:57:44;21.75;;;4.32;;
54683;SDS011;40582;53.100;6.686;2023-02-18T15:00:18;20.98;;;3.72;;
54683;SDS011;40582;53.100;6.686;2023-02-18T15:02:51;22.40;;;4.47;;
54683;SDS011;40582;53.100;6.686;2023-02-18T15:05:19;27.75;;;4.07;;
54683;SDS011;40582;53.100;6.686;2023-02-18T15:08:15;18.42;;;3.65;;
54683;SDS011;40582;53.100;6.686;2023-02-18T15:10:51;22.33;;;4.18;;
54683;SDS011;40582;53.100;6.686;2023-02-18T15:13:37;19.98;;;3.78;;
54683;SDS011;40582;53.100;6.686;2023-02-18T15:18:56;24.23;;;3.80;;
54683;SDS011;40582;53.100;6.686;2023-02-18T15:24:13;26.30;;;4.70;;
54683;SDS011;40582;53.100;6.686;2023-02-18T15:26:42;23.65;;;4.20;;
54683;SDS011;40582;53.100;6.686;2023-02-18T15:29:14;22.73;;;3.92;;
54683;SDS011;40582;53.100;6.686;2023-02-18T15:32:13;26.95;;;3.95;;
54683;SDS011;40582;53.100;6.686;2023-02-18T15:34:41;20.35;;;3.90;;
54683;SDS011;40582;53.100;6.686;2023-02-18T15:37:09;26.08;;;4.43;;
54683;SDS011;40582;53.100;6.686;2023-02-18T15:39:37;23.33;;;4.18;;
54683;SDS011;40582;53.100;6.686;2023-02-18T15:42:16;33.65;;;5.18;;
54683;SDS011;40582;53.100;6.686;2023-02-18T15:44:55;29.75;;;4.65;;
54683;SDS011;40582;53.100;6.686;2023-02-18T15:47:45;24.58;;;4.47;;
54683;SDS011;40582;53.100;6.686;2023-02-18T15:50:17;19.75;;;4.13;;
54683;SDS011;40582;53.100;6.686;2023-02-18T15:52:45;17.80;;;3.88;;
54683;SDS011;40582;53.100;6.686;2023-02-18T15:55:45;30.23;;;5.05;;
54683;SDS011;40582;53.100;6.686;2023-02-18T15:58:06;22.85;;;4.38;;
54683;SDS011;40582;53.100;6.686;2023-02-18T16:00:41;23.30;;;4.10;;
54683;SDS011;40582;53.100;6.686;2023-02-18T16:03:20;23.33;;;4.57;;
54683;SDS011;40582;53.100;6.686;2023-02-18T16:05:46;23.02;;;3.92;;
54683;SDS011;40582;53.100;6.686;2023-02-18T16:08:13;26.90;;;4.40;;
54683;SDS011;40582;53.100;6.686;2023-02-18T16:10:45;27.85;;;4.95;;
54683;SDS011;40582;53.100;6.686;2023-02-18T16:13:14;28.80;;;5.07;;
54683;SDS011;40582;53.100;6.686;2023-02-18T16:15:42;26.17;;;4.13;;
54683;SDS011;40582;53.100;6.686;2023-02-18T16:23:32;26.77;;;5.63;;
54683;SDS011;40582;53.100;6.686;2023-02-18T16:28:46;24.77;;;4.10;;
54683;SDS011;40582;53.100;6.686;2023-02-18T16:31:14;26.10;;;4.35;;
54683;SDS011;40582;53.100;6.686;2023-02-18T16:33:41;23.92;;;4.45;;
54683;SDS011;40582;53.100;6.686;2023-02-18T16:36:11;27.33;;;4.18;;
54683;SDS011;40582;53.100;6.686;2023-02-18T16:38:42;26.17;;;4.93;;
54683;SDS011;40582;53.100;6.686;2023-02-18T16:41:10;26.70;;;5.20;;
54683;SDS011;40582;53.100;6.686;2023-02-18T16:43:38;30.58;;;5.25;;
54683;SDS011;40582;53.100;6.686;2023-02-18T16:46:06;27.05;;;4.57;;
54683;SDS011;40582;53.100;6.686;2023-02-18T16:48:38;28.00;;;4.20;;
54683;SDS011;40582;53.100;6.686;2023-02-18T16:51:06;33.22;;;5.82;;
54683;SDS011;40582;53.100;6.686;2023-02-18T16:53:52;33.85;;;5.60;;
54683;SDS011;40582;53.100;6.686;2023-02-18T16:56:22;37.65;;;5.03;;
54683;SDS011;40582;53.100;6.686;2023-02-18T16:58:49;29.92;;;5.32;;
54683;SDS011;40582;53.100;6.686;2023-02-18T17:03:50;25.10;;;4.45;;
54683;SDS011;40582;53.100;6.686;2023-02-18T17:06:16;31.65;;;5.38;;
54683;SDS011;40582;53.100;6.686;2023-02-18T17:08:42;36.83;;;5.47;;
54683;SDS011;40582;53.100;6.686;2023-02-18T17:11:13;26.80;;;4.93;;
54683;SDS011;40582;53.100;6.686;2023-02-18T17:13:50;26.83;;;5.47;;
54683;SDS011;40582;53.100;6.686;2023-02-18T17:16:18;27.63;;;5.93;;
54683;SDS011;40582;53.100;6.686;2023-02-18T17:18:44;28.48;;;5.32;;
54683;SDS011;40582;53.100;6.686;2023-02-18T17:21:11;28.15;;;5.00;;
54683;SDS011;40582;53.100;6.686;2023-02-18T17:23:41;32.28;;;5.18;;
54683;SDS011;40582;53.100;6.686;2023-02-18T17:26:21;24.83;;;4.30;;
54683;SDS011;40582;53.100;6.686;2023-02-18T17:28:49;36.70;;;5.20;;
54683;SDS011;40582;53.100;6.686;2023-02-18T17:31:18;33.30;;;4.90;;